Te Rere — ZM9869 — position and weather

sailwx.info

Track history (hours):
 
Tides and Currents Weather Stations Pressure Air Temp Water Temp Dewpoint Dewpoint Depression Visibility Wind Speed Wind Dir Waves Ship Positions

Te Rere

Last reported at 2017-Sep-08 12:16 UTC. Time now 2017-Sep-25 09:56 UTC.
Position N 37°03' W 008°17'.
Warning: this ship's position is 16 days out of date.

Length 12 m.

Type: Pleasure craft. MMSI: 512006079.

Date/timePositionNaut miles runAvg speedWind from/ knotsBaromVisibWave heightAir tempDewpointWater temp
2017-Sep-08 12:16N 37°03' W 008°17'1 5.5
2017-Sep-08 12:00N 37°04' W 008°19'8 5.2
2017-Sep-08 10:28N 37°05' W 008°29'3 0.1
2017-Sep-07 09:05N 37°07' W 008°31'0 1.6
2017-Sep-07 08:56N 37°08' W 008°32'1 0.1
2017-Sep-06 13:30N 37°06' W 008°32'4 4.8
2017-Sep-06 12:42N 37°07' W 008°37'0 0.0
2017-Sep-04 11:56N 37°07' W 008°37'45 1.6
2017-Sep-03 07:25N 37°50' W 008°54'2 5.0
2017-Sep-03 06:58N 37°53' W 008°53'2 5.3
2017-Sep-03 06:30N 37°55' W 008°53'2 3.7
2017-Sep-03 06:00N 37°57' W 008°52'0 0.0
2017-Sep-02 16:20N 37°57' W 008°52'0 0.3
2017-Sep-02 16:00N 37°57' W 008°52'2 3.7
2017-Sep-02 15:30N 37°57' W 008°54'3 6.5
2017-Sep-02 15:00N 37°60' W 008°57'3 5.8
2017-Sep-02 14:30N 38°03' W 008°58'3 5.8
2017-Sep-02 14:00N 38°05' W 008°59'3 6.0
2017-Sep-02 13:30N 38°08' W 009°00'3 6.0
2017-Sep-02 13:00N 38°11' W 009°01'16 0.8
2017-Sep-01 15:15N 38°24' W 009°14'2 5.7
2017-Sep-01 14:58N 38°25' W 009°15'3 6.6
2017-Sep-01 14:29N 38°28' W 009°17'3 6.7
2017-Sep-01 14:00N 38°31' W 009°19'3 6.6
2017-Sep-01 13:30N 38°34' W 009°20'3 5.9
2017-Sep-01 12:58N 38°37' W 009°21'3 5.2
2017-Sep-01 12:23N 38°40' W 009°23'2 4.0
2017-Sep-01 11:58N 38°41' W 009°24'1 0.0
2017-Aug-30 14:10N 38°42' W 009°25'0 0.0
2017-Aug-30 13:58N 38°42' W 009°25'2 4.4
2017-Aug-30 13:24N 38°41' W 009°22'2 5.6
2017-Aug-30 13:00N 38°40' W 009°19'3 5.9
2017-Aug-30 12:30N 38°41' W 009°16'  
Track history (hours):
 
Tides and Currents Weather Stations Pressure Air Temp Water Temp Dewpoint Dewpoint Depression Visibility Wind Speed Wind Dir Waves Ship Positions

Te Rere

Last reported at 2017-Sep-08 12:16 UTC. Time now 2017-Sep-25 09:56 UTC.
Position N 37°03' W 008°17'.
Warning: this ship's position is 16 days out of date.

Length 12 m.

Type: Pleasure craft. MMSI: 512006079.

Date/timePositionNaut miles runAvg speedWind from/ knotsBaromVisibWave heightAir tempDewpointWater temp
2017-Sep-08 12:16N 37°03' W 008°17'1 5.5
2017-Sep-08 12:00N 37°04' W 008°19'8 5.2
2017-Sep-08 10:28N 37°05' W 008°29'3 0.1
2017-Sep-07 09:05N 37°07' W 008°31'0 1.6
2017-Sep-07 08:56N 37°08' W 008°32'1 0.1
2017-Sep-06 13:30N 37°06' W 008°32'4 4.8
2017-Sep-06 12:42N 37°07' W 008°37'0 0.0
2017-Sep-04 11:56N 37°07' W 008°37'45 1.6
2017-Sep-03 07:25N 37°50' W 008°54'2 5.0
2017-Sep-03 06:58N 37°53' W 008°53'2 5.3
2017-Sep-03 06:30N 37°55' W 008°53'2 3.7
2017-Sep-03 06:00N 37°57' W 008°52'0 0.0
2017-Sep-02 16:20N 37°57' W 008°52'0 0.3
2017-Sep-02 16:00N 37°57' W 008°52'2 3.7
2017-Sep-02 15:30N 37°57' W 008°54'3 6.5
2017-Sep-02 15:00N 37°60' W 008°57'3 5.8
2017-Sep-02 14:30N 38°03' W 008°58'3 5.8
2017-Sep-02 14:00N 38°05' W 008°59'3 6.0
2017-Sep-02 13:30N 38°08' W 009°00'3 6.0
2017-Sep-02 13:00N 38°11' W 009°01'16 0.8
2017-Sep-01 15:15N 38°24' W 009°14'2 5.7
2017-Sep-01 14:58N 38°25' W 009°15'3 6.6
2017-Sep-01 14:29N 38°28' W 009°17'3 6.7
2017-Sep-01 14:00N 38°31' W 009°19'3 6.6
2017-Sep-01 13:30N 38°34' W 009°20'3 5.9
2017-Sep-01 12:58N 38°37' W 009°21'3 5.2
2017-Sep-01 12:23N 38°40' W 009°23'2 4.0
2017-Sep-01 11:58N 38°41' W 009°24'1 0.0
2017-Aug-30 14:10N 38°42' W 009°25'0 0.0
2017-Aug-30 13:58N 38°42' W 009°25'2 4.4
2017-Aug-30 13:24N 38°41' W 009°22'2 5.6
2017-Aug-30 13:00N 38°40' W 009°19'3 5.9
2017-Aug-30 12:30N 38°41' W 009°16'  

Dump ship's entire track history